createdAt,value
2022-07-29T00:03:17.585Z,0.00
2022-07-29T00:08:49.113Z,1.00
2022-07-29T00:14:21.357Z,0.00
2022-07-29T00:19:53.130Z,0.00
2022-07-29T00:25:24.690Z,0.00
2022-07-29T00:30:56.466Z,0.00
2022-07-29T00:36:28.834Z,0.00
2022-07-29T00:42:00.793Z,0.00
2022-07-29T00:47:32.481Z,1.00
2022-07-29T00:53:04.296Z,0.00
2022-07-29T00:58:36.033Z,0.00
2022-07-29T03:04:51.408Z,1.00
2022-07-29T03:10:23.196Z,2.00
2022-07-29T03:15:55.353Z,5.00
2022-07-29T03:21:26.855Z,15.00
2022-07-29T03:26:58.962Z,41.00
2022-07-29T03:32:30.378Z,94.00
2022-07-29T03:38:02.435Z,174.00
2022-07-29T03:43:34.697Z,311.00
2022-07-29T03:49:06.280Z,452.00
2022-07-29T03:54:38.250Z,637.00
2022-07-29T04:00:09.750Z,1025.00
2022-07-29T04:02:32.946Z,1247.00
2022-07-29T04:08:04.548Z,1974.00
2022-07-29T04:13:36.792Z,2974.00
2022-07-29T04:19:08.504Z,4120.00
2022-07-29T04:24:44.036Z,5307.00
2022-07-29T04:30:12.081Z,29603.00
2022-07-29T04:35:47.125Z,37889.00
2022-07-29T04:41:15.355Z,37889.00
2022-07-29T04:46:47.331Z,37889.00
2022-07-29T04:52:19.130Z,37889.00
2022-07-29T04:57:50.845Z,37889.00
2022-07-29T05:03:22.759Z,10599.00
2022-07-29T05:08:54.558Z,13829.00
2022-07-29T05:14:26.417Z,13773.00
2022-07-29T05:19:58.233Z,14430.00
2022-07-29T05:25:42.991Z,14809.00
2022-07-29T05:31:01.748Z,14527.00
2022-07-29T05:36:33.450Z,15122.00
2022-07-29T05:42:05.162Z,17832.00
2022-07-29T05:47:37.144Z,37855.00
2022-07-29T05:53:19.421Z,37889.00
2022-07-29T05:58:40.727Z,37889.00
2022-07-29T06:04:12.449Z,37889.00
2022-07-29T06:09:44.360Z,37889.00
2022-07-29T06:15:16.211Z,37889.00
2022-07-29T06:20:47.680Z,37889.00
2022-07-29T06:26:19.385Z,37889.00
2022-07-29T06:31:51.215Z,37889.00
2022-07-29T06:37:23.447Z,37889.00
2022-07-29T06:48:27.735Z,37889.00
2022-07-29T06:54:02.663Z,37889.00
2022-07-29T06:59:35.577Z,37889.00
2022-07-29T07:05:03.198Z,37889.00
2022-07-29T07:10:34.931Z,37889.00
2022-07-29T07:16:06.590Z,37889.00
2022-07-29T07:21:38.389Z,37889.00
2022-07-29T07:27:10.189Z,37889.00
2022-07-29T07:32:42.137Z,37889.00
2022-07-29T07:38:13.663Z,37889.00
2022-07-29T07:43:45.528Z,37889.00
2022-07-29T07:49:17.637Z,37889.00
2022-07-29T07:54:48.977Z,37889.00
2022-07-29T08:00:23.274Z,37889.00
2022-07-29T08:05:52.412Z,37889.00
2022-07-29T08:11:24.002Z,37889.00
2022-07-29T08:16:55.860Z,37889.00
2022-07-29T08:22:27.555Z,37889.00
2022-07-29T08:27:59.559Z,37889.00
2022-07-29T08:33:31.586Z,37889.00
2022-07-29T08:39:03.935Z,37889.00
2022-07-29T08:44:35.862Z,37889.00
2022-07-29T08:50:07.697Z,37889.00
2022-07-29T08:55:39.726Z,37889.00
2022-07-29T09:01:12.417Z,37889.00
2022-07-29T09:06:43.529Z,37889.00
2022-07-29T09:12:28.910Z,37889.00
2022-07-29T09:17:46.943Z,37889.00
2022-07-29T09:23:23.058Z,37889.00
2022-07-29T09:28:50.629Z,37889.00
2022-07-29T09:34:22.445Z,37889.00
2022-07-29T09:39:54.185Z,37889.00
2022-07-29T09:45:25.928Z,37889.00
2022-07-29T09:50:57.791Z,37889.00
2022-07-29T09:56:29.277Z,37889.00
2022-07-29T10:02:01.082Z,37889.00
2022-07-29T10:07:33.085Z,37889.00
2022-07-29T10:13:09.001Z,37889.00
2022-07-29T10:18:36.714Z,37889.00
2022-07-29T10:24:15.109Z,33382.00
2022-07-29T10:29:40.224Z,37889.00
2022-07-29T10:35:12.225Z,37889.00
2022-07-29T10:40:43.894Z,35613.00
2022-07-29T10:51:47.963Z,34866.00
2022-07-29T11:02:49.880Z,34548.00
2022-07-29T11:08:21.017Z,33701.00
2022-07-29T11:13:53.169Z,22975.00
2022-07-29T11:19:29.885Z,16917.00
2022-07-29T11:24:56.217Z,17759.00
2022-07-29T11:30:35.000Z,24704.00
2022-07-29T11:41:38.318Z,26915.00
2022-07-29T11:47:10.284Z,19469.00
2022-07-29T11:58:13.814Z,31773.00
2022-07-29T12:03:46.157Z,32988.00
2022-07-29T12:17:06.406Z,34871.00
2022-07-29T12:22:37.188Z,37290.00
2022-07-29T12:28:08.982Z,34667.00
2022-07-29T12:33:40.514Z,37889.00
2022-07-29T12:39:11.745Z,25510.00
2022-07-29T12:55:46.926Z,23992.00
2022-07-29T13:01:18.487Z,19003.00
2022-07-29T13:12:23.078Z,15349.00
2022-07-29T13:17:54.755Z,15590.00
2022-07-29T13:23:26.322Z,14566.00
2022-07-29T13:28:58.048Z,13396.00
2022-07-29T13:34:30.107Z,12877.00
2022-07-29T13:40:01.703Z,11338.00
2022-07-29T13:45:33.896Z,14631.00
2022-07-29T13:51:05.854Z,15164.00
2022-07-29T13:56:38.079Z,15774.00
2022-07-29T14:02:09.880Z,16255.00
2022-07-29T14:13:24.326Z,18945.00
2022-07-29T14:18:43.073Z,17606.00
2022-07-29T14:24:18.069Z,18979.00
2022-07-29T14:29:47.232Z,20507.00
2022-07-29T14:35:19.152Z,19837.00
2022-07-29T14:40:51.081Z,12109.00
2022-07-29T14:46:22.700Z,15325.00
2022-07-29T14:51:54.310Z,14111.00
2022-07-29T14:57:25.919Z,15659.00
2022-07-29T15:03:02.274Z,15620.00
2022-07-29T15:08:29.425Z,11818.00
2022-07-29T15:14:01.098Z,8429.00
2022-07-29T15:25:03.114Z,7001.00
2022-07-29T15:30:34.811Z,7305.00
2022-07-29T15:36:06.676Z,10826.00
2022-07-29T15:41:38.433Z,15770.00
2022-07-29T15:47:10.018Z,14245.00
2022-07-29T15:52:41.415Z,12564.00
2022-07-29T15:58:13.052Z,11678.00
2022-07-29T16:03:46.334Z,12055.00
2022-07-29T16:09:16.293Z,11123.00
2022-07-29T16:14:48.447Z,9463.00
2022-07-29T16:20:20.120Z,7978.00
2022-07-29T16:26:00.541Z,6919.00
2022-07-29T16:31:23.351Z,6421.00
2022-07-29T16:36:54.665Z,5153.00
2022-07-29T16:42:45.555Z,3536.00
2022-07-29T16:48:00.930Z,3449.00
2022-07-29T16:53:30.244Z,3940.00
2022-07-29T16:59:01.057Z,3518.00
2022-07-29T17:04:32.875Z,3265.00
2022-07-29T17:10:04.812Z,2899.00
2022-07-29T17:15:36.546Z,2419.00
2022-07-29T17:21:08.383Z,2034.00
2022-07-29T17:26:40.251Z,1127.00
2022-07-29T17:32:11.953Z,661.00
2022-07-29T17:37:43.876Z,545.00
2022-07-29T17:43:16.039Z,772.00
2022-07-29T17:48:47.654Z,1008.00
2022-07-29T17:54:19.495Z,939.00
2022-07-29T17:59:51.173Z,899.00
2022-07-29T18:05:23.209Z,691.00
2022-07-29T18:10:54.695Z,502.00
2022-07-29T18:16:26.900Z,365.00
2022-07-29T18:22:03.534Z,294.00
2022-07-29T18:27:30.495Z,257.00
2022-07-29T18:33:20.837Z,239.00
2022-07-29T18:38:34.314Z,193.00
2022-07-29T18:44:05.957Z,132.00
2022-07-29T18:49:37.766Z,102.00
2022-07-29T18:55:09.615Z,48.00
2022-07-29T19:00:41.550Z,33.00
2022-07-29T19:06:13.280Z,22.00
2022-07-29T19:11:44.869Z,13.00
2022-07-29T19:17:16.883Z,9.00
2022-07-29T19:22:48.520Z,4.00
2022-07-29T19:28:20.245Z,3.00
2022-07-29T19:33:51.871Z,2.00
2022-07-29T19:39:35.367Z,3.00
2022-07-29T19:44:55.464Z,2.00
2022-07-29T19:50:27.590Z,2.00
2022-07-29T19:55:59.223Z,2.00
2022-07-29T20:01:31.190Z,3.00
2022-07-29T20:07:03.027Z,2.00
2022-07-29T20:12:34.756Z,2.00
2022-07-29T20:18:06.740Z,1.00
2022-07-29T20:23:38.514Z,2.00
2022-07-29T20:29:10.040Z,1.00
2022-07-29T20:34:41.968Z,2.00
2022-07-29T20:40:13.839Z,0.00
2022-07-29T20:45:45.736Z,1.00
2022-07-29T20:51:17.737Z,1.00
2022-07-29T20:56:49.657Z,1.00
2022-07-29T21:02:22.919Z,0.00
2022-07-29T21:07:58.083Z,0.00
2022-07-29T21:13:26.447Z,1.00
2022-07-29T21:18:58.047Z,1.00
2022-07-29T21:24:32.756Z,1.00
2022-07-29T21:30:05.220Z,0.00
2022-07-29T21:36:07.314Z,0.00
2022-07-29T21:41:09.104Z,0.00
2022-07-29T21:46:41.196Z,1.00
2022-07-29T21:52:13.195Z,0.00
2022-07-29T21:57:45.218Z,0.00
2022-07-29T22:03:17.228Z,0.00
2022-07-29T22:08:52.520Z,0.00
2022-07-29T22:14:24.410Z,0.00
2022-07-29T22:19:56.562Z,0.00
2022-07-29T22:25:28.474Z,0.00
2022-07-29T22:31:00.336Z,0.00
2022-07-29T22:36:32.360Z,0.00
2022-07-29T22:42:04.618Z,0.00
2022-07-29T22:53:08.270Z,1.00
2022-07-29T22:58:40.100Z,0.00
2022-07-29T23:04:12.143Z,1.00
2022-07-29T23:09:43.778Z,0.00
2022-07-29T23:15:15.632Z,1.00
2022-07-29T23:20:47.525Z,0.00
2022-07-29T23:26:19.603Z,0.00
2022-07-29T23:31:51.800Z,0.00
2022-07-29T23:37:23.653Z,0.00
2022-07-29T23:42:55.782Z,0.00
2022-07-29T23:48:27.672Z,0.00
2022-07-29T23:53:59.705Z,1.00
2022-07-29T23:59:31.817Z,0.00
